F/V Anna Mamm Mari — FOHD — position and weather

sailwx.info

Track history (hours):
 
Tides and Currents Weather Stations Pressure Air Temp Water Temp Dewpoint Dewpoint Depression Visibility Wind Speed Wind Dir Waves Ship Positions

F/V Anna Mamm Mari

Last reported at 2017-Nov-24 06:44 UTC. Time now 2017-Nov-24 07:17 UTC.
Position N 46°16' W 001°44'.

Length 17 m.

Type: Fishing. MMSI: 228393000.

Date/timePositionNaut miles runAvg speedWind from/ knotsBaromVisibWave heightAir tempDewpointWater temp
2017-Nov-24 06:44N 46°16' W 001°44'0 0.3
2017-Nov-24 05:53N 46°15' W 001°44'1 1.5
2017-Nov-24 05:19N 46°15' W 001°45'1 1.7
2017-Nov-24 04:59N 46°15' W 001°46'0 0.7
2017-Nov-24 04:22N 46°15' W 001°46'1 1.2
2017-Nov-24 03:08N 46°16' W 001°44'1 3.9
2017-Nov-24 02:58N 46°17' W 001°44'7 8.4
2017-Nov-24 02:10N 46°23' W 001°46'1 8.8
2017-Nov-24 02:00N 46°25' W 001°46'4 8.8
2017-Nov-24 01:30N 46°29' W 001°47'1 1.9
2017-Nov-24 01:00N 46°30' W 001°47'0 0.0
2017-Nov-24 00:30N 46°30' W 001°47'0 0.0
2017-Nov-24 00:00N 46°30' W 001°47'0 0.0
2017-Nov-23 23:30N 46°30' W 001°47'0 0.0
2017-Nov-23 23:00N 46°30' W 001°47'0 0.0
2017-Nov-23 22:30N 46°30' W 001°47'0 0.0
2017-Nov-23 22:00N 46°30' W 001°47'0 0.0
2017-Nov-23 21:30N 46°30' W 001°47'0 0.2
2017-Nov-23 21:00N 46°30' W 001°47'0 0.0
2017-Nov-23 20:30N 46°30' W 001°47'0 0.3
2017-Nov-23 20:00N 46°30' W 001°47'0 0.0
2017-Nov-23 19:30N 46°30' W 001°47'0 0.2
2017-Nov-23 19:00N 46°30' W 001°47'0 0.0
2017-Nov-23 18:30N 46°30' W 001°47'0 0.0
2017-Nov-23 18:00N 46°30' W 001°47'0 0.0
2017-Nov-23 17:30N 46°30' W 001°47'0 0.0
2017-Nov-23 17:00N 46°30' W 001°47'0 0.0
2017-Nov-23 16:30N 46°30' W 001°47'0 0.0
2017-Nov-23 16:00N 46°30' W 001°47'0 0.9
2017-Nov-23 15:30N 46°29' W 001°48'5 9.3
2017-Nov-23 15:00N 46°25' W 001°46'5 9.5
2017-Nov-23 14:30N 46°20' W 001°45'5 7.9
2017-Nov-23 13:53N 46°15' W 001°46'1 2.4
2017-Nov-23 13:28N 46°16' W 001°44'0 0.5
2017-Nov-23 12:57N 46°15' W 001°44'0 0.3
2017-Nov-23 12:28N 46°15' W 001°44'0 0.3
2017-Nov-23 11:50N 46°15' W 001°44'3 9.0
2017-Nov-23 11:29N 46°13' W 001°41'1 2.0
2017-Nov-23 11:00N 46°14' W 001°42'3 6.1
2017-Nov-23 10:29N 46°15' W 001°46'1 2.4
2017-Nov-23 09:57N 46°15' W 001°48'1 1.7
2017-Nov-23 09:30N 46°14' W 001°49'1 1.9
2017-Nov-23 08:57N 46°15' W 001°47'1 1.4
2017-Nov-23 08:31N 46°15' W 001°48'1 1.2
2017-Nov-23 08:00N 46°14' W 001°49'3 1.3
2017-Nov-23 05:44N 46°16' W 001°45'0 1.6
2017-Nov-23 05:25N 46°16' W 001°46'1 1.7
2017-Nov-23 04:57N 46°15' W 001°47'1 1.8
2017-Nov-23 04:30N 46°15' W 001°48'2 0.8
2017-Nov-23 02:01N 46°15' W 001°45'0 2.2
2017-Nov-23 01:59N 46°15' W 001°45'1 2.1
2017-Nov-23 01:30N 46°15' W 001°47'1 2.2
2017-Nov-23 00:59N 46°14' W 001°48'1 2.3
2017-Nov-23 00:23N 46°15' W 001°47'2 0.5
2017-Nov-22 20:21N 46°16' W 001°45'0 0.1
2017-Nov-22 19:07N 46°16' W 001°45'  
2017-Nov-17 03:02N 46°07' W 002°16'0 0.1
2017-Nov-17 02:58N 46°07' W 002°16'0 0.0
2017-Nov-16 21:04N 46°08' W 002°16'  
Track history (hours):
 
Tides and Currents Weather Stations Pressure Air Temp Water Temp Dewpoint Dewpoint Depression Visibility Wind Speed Wind Dir Waves Ship Positions

F/V Anna Mamm Mari

Last reported at 2017-Nov-24 06:44 UTC. Time now 2017-Nov-24 07:17 UTC.
Position N 46°16' W 001°44'.

Length 17 m.

Type: Fishing. MMSI: 228393000.

Date/timePositionNaut miles runAvg speedWind from/ knotsBaromVisibWave heightAir tempDewpointWater temp
2017-Nov-24 06:44N 46°16' W 001°44'0 0.3
2017-Nov-24 05:53N 46°15' W 001°44'1 1.5
2017-Nov-24 05:19N 46°15' W 001°45'1 1.7
2017-Nov-24 04:59N 46°15' W 001°46'0 0.7
2017-Nov-24 04:22N 46°15' W 001°46'1 1.2
2017-Nov-24 03:08N 46°16' W 001°44'1 3.9
2017-Nov-24 02:58N 46°17' W 001°44'7 8.4
2017-Nov-24 02:10N 46°23' W 001°46'1 8.8
2017-Nov-24 02:00N 46°25' W 001°46'4 8.8
2017-Nov-24 01:30N 46°29' W 001°47'1 1.9
2017-Nov-24 01:00N 46°30' W 001°47'0 0.0
2017-Nov-24 00:30N 46°30' W 001°47'0 0.0
2017-Nov-24 00:00N 46°30' W 001°47'0 0.0
2017-Nov-23 23:30N 46°30' W 001°47'0 0.0
2017-Nov-23 23:00N 46°30' W 001°47'0 0.0
2017-Nov-23 22:30N 46°30' W 001°47'0 0.0
2017-Nov-23 22:00N 46°30' W 001°47'0 0.0
2017-Nov-23 21:30N 46°30' W 001°47'0 0.2
2017-Nov-23 21:00N 46°30' W 001°47'0 0.0
2017-Nov-23 20:30N 46°30' W 001°47'0 0.3
2017-Nov-23 20:00N 46°30' W 001°47'0 0.0
2017-Nov-23 19:30N 46°30' W 001°47'0 0.2
2017-Nov-23 19:00N 46°30' W 001°47'0 0.0
2017-Nov-23 18:30N 46°30' W 001°47'0 0.0
2017-Nov-23 18:00N 46°30' W 001°47'0 0.0
2017-Nov-23 17:30N 46°30' W 001°47'0 0.0
2017-Nov-23 17:00N 46°30' W 001°47'0 0.0
2017-Nov-23 16:30N 46°30' W 001°47'0 0.0
2017-Nov-23 16:00N 46°30' W 001°47'0 0.9
2017-Nov-23 15:30N 46°29' W 001°48'5 9.3
2017-Nov-23 15:00N 46°25' W 001°46'5 9.5
2017-Nov-23 14:30N 46°20' W 001°45'5 7.9
2017-Nov-23 13:53N 46°15' W 001°46'1 2.4
2017-Nov-23 13:28N 46°16' W 001°44'0 0.5
2017-Nov-23 12:57N 46°15' W 001°44'0 0.3
2017-Nov-23 12:28N 46°15' W 001°44'0 0.3
2017-Nov-23 11:50N 46°15' W 001°44'3 9.0
2017-Nov-23 11:29N 46°13' W 001°41'1 2.0
2017-Nov-23 11:00N 46°14' W 001°42'3 6.1
2017-Nov-23 10:29N 46°15' W 001°46'1 2.4
2017-Nov-23 09:57N 46°15' W 001°48'1 1.7
2017-Nov-23 09:30N 46°14' W 001°49'1 1.9
2017-Nov-23 08:57N 46°15' W 001°47'1 1.4
2017-Nov-23 08:31N 46°15' W 001°48'1 1.2
2017-Nov-23 08:00N 46°14' W 001°49'3 1.3
2017-Nov-23 05:44N 46°16' W 001°45'0 1.6
2017-Nov-23 05:25N 46°16' W 001°46'1 1.7
2017-Nov-23 04:57N 46°15' W 001°47'1 1.8
2017-Nov-23 04:30N 46°15' W 001°48'2 0.8
2017-Nov-23 02:01N 46°15' W 001°45'0 2.2
2017-Nov-23 01:59N 46°15' W 001°45'1 2.1
2017-Nov-23 01:30N 46°15' W 001°47'1 2.2
2017-Nov-23 00:59N 46°14' W 001°48'1 2.3
2017-Nov-23 00:23N 46°15' W 001°47'2 0.5
2017-Nov-22 20:21N 46°16' W 001°45'0 0.1
2017-Nov-22 19:07N 46°16' W 001°45'  
2017-Nov-17 03:02N 46°07' W 002°16'0 0.1
2017-Nov-17 02:58N 46°07' W 002°16'0 0.0
2017-Nov-16 21:04N 46°08' W 002°16'  

Dump ship's entire track history